Time;durP1;ratioP1;P1;durP2;ratioP2;P2;SDS_P1;SDS_P2;PMS_P1;PMS_P2;Temp;Humidity;BMP_temperature;BMP_pressure;BME280_temperature;BME280_humidity;BME280_pressure;Samples;Min_cycle;Max_cycle;Signal;HPM_P1;HPM_P2
2021/11/05 00:00:23;;;;;;;;;3.00;2.75;;;;;17.50;45.33;101479.28;4992620;28;51160;-50
2021/11/05 00:02:51;;;;;;;;;6.00;6.00;;;;;17.50;44.99;101487.50;4992386;28;51135;-49
2021/11/05 00:05:17;;;;;;;;;6.00;5.50;;;;;17.52;45.26;101495.56;4992884;28;51410;-47
2021/11/05 00:07:43;;;;;;;;;5.25;3.25;;;;;17.50;45.13;101492.13;4992769;28;51237;-47
2021/11/05 00:10:08;;;;;;;;;5.50;5.50;;;;;17.51;45.01;101493.88;4992918;28;51115;-47
2021/11/05 00:12:33;;;;;;;;;3.00;3.00;;;;;17.51;44.79;101499.34;4992436;28;51071;-43
2021/11/05 00:14:59;;;;;;;;;3.00;3.00;;;;;17.51;44.92;101496.63;4992616;28;51123;-46
2021/11/05 00:17:24;;;;;;;;;2.75;2.75;;;;;17.49;44.98;101502.25;4992773;28;51134;-43
2021/11/05 00:19:49;;;;;;;;;2.75;2.75;;;;;17.50;44.99;101501.22;4992708;28;51066;-44
2021/11/05 00:22:15;;;;;;;;;5.00;3.75;;;;;17.50;44.86;101509.44;4992552;28;51888;-42
2021/11/05 00:24:40;;;;;;;;;2.50;2.50;;;;;17.51;44.83;101507.56;4992773;28;51005;-49
2021/11/05 00:27:06;;;;;;;;;3.00;3.00;;;;;17.49;45.29;101507.72;5037175;28;51306;-43
2021/11/05 00:29:31;;;;;;;;;2.75;2.75;;;;;17.49;45.18;101507.72;5075912;27;51441;-49
2021/11/05 00:31:56;;;;;;;;;3.25;2.75;;;;;17.49;45.01;101506.88;5075575;27;51011;-48
2021/11/05 00:34:22;;;;;;;;;2.50;2.50;;;;;17.49;44.95;101496.78;5075721;27;51210;-44
2021/11/05 00:36:48;;;;;;;;;2.75;2.75;;;;;17.48;45.18;101496.97;5075474;27;51104;-47
2021/11/05 00:39:15;;;;;;;;;2.00;2.00;;;;;17.49;45.19;101502.25;5075471;27;51311;-49
2021/11/05 00:41:40;;;;;;;;;4.50;2.00;;;;;17.49;44.93;101498.66;5075379;27;51072;-43
2021/11/05 00:44:06;;;;;;;;;4.25;2.25;;;;;17.48;44.98;101503.28;5075407;27;50847;-46
2021/11/05 00:46:32;;;;;;;;;3.00;3.00;;;;;17.49;45.26;101517.84;5073951;28;51122;-46
2021/11/05 00:49:00;;;;;;;;;4.75;3.25;;;;;17.49;45.11;101513.22;5075522;27;51401;-44
2021/11/05 00:51:25;;;;;;;;;4.00;2.50;;;;;17.49;44.98;101515.94;5074682;27;52152;-49
2021/11/05 00:53:50;;;;;;;;;3.75;3.75;;;;;17.49;44.92;101521.41;5075064;27;51130;-42
2021/11/05 00:56:16;;;;;;;;;3.75;2.50;;;;;17.48;45.07;101514.25;5075735;27;51171;-45
2021/11/05 00:58:42;;;;;;;;;5.25;2.75;;;;;17.49;44.97;101523.31;5077145;27;51324;-49
2021/11/05 01:01:09;;;;;;;;;2.25;2.25;;;;;17.49;44.90;101537.00;5078509;27;51800;-43
2021/11/05 01:03:35;;;;;;;;;3.75;2.00;;;;;17.48;45.29;101532.56;5078642;27;51414;-45
2021/11/05 01:06:01;;;;;;;;;2.75;2.75;;;;;17.48;45.19;101533.41;5077274;28;51044;-47
2021/11/05 01:08:26;;;;;;;;;3.50;3.50;;;;;17.48;44.88;101535.31;5078755;27;50935;-46
2021/11/05 01:10:51;;;;;;;;;3.75;3.00;;;;;17.49;45.17;101539.75;5078629;27;51073;-46
2021/11/05 01:13:17;;;;;;;;;2.00;2.00;;;;;17.48;44.95;101544.38;5078284;27;51045;-45
2021/11/05 01:15:42;;;;;;;;;3.25;3.25;;;;;17.48;45.16;101541.63;5078346;27;51212;-49
2021/11/05 01:18:08;;;;;;;;;2.75;1.75;;;;;17.48;45.20;101546.25;5078608;27;51093;-47
2021/11/05 01:20:33;;;;;;;;;3.50;3.50;;;;;17.48;45.11;101551.75;5078182;27;51975;-44
2021/11/05 01:22:59;;;;;;;;;2.50;2.25;;;;;17.48;45.19;101551.75;5078698;27;51164;-49
2021/11/05 01:25:24;;;;;;;;;2.25;2.25;;;;;17.47;44.92;101553.63;5078520;27;51129;-43
2021/11/05 01:27:51;;;;;;;;;3.00;2.75;;;;;17.47;45.12;101559.13;5008521;27;51083;-43
2021/11/05 01:30:17;;;;;;;;;6.00;3.50;;;;;17.47;45.12;101563.75;4994747;28;52069;-46
2021/11/05 01:32:43;;;;;;;;;4.00;2.50;;;;;17.47;45.07;101566.47;4994673;28;51195;-46
2021/11/05 01:35:10;;;;;;;;;1.00;1.00;;;;;17.46;44.99;101562.88;4994993;28;50900;-46
2021/11/05 01:37:35;;;;;;;;;0.00;0.00;;;;;17.47;45.04;101558.25;4995136;28;51010;-45
2021/11/05 01:40:01;;;;;;;;;3.00;3.00;;;;;17.46;45.05;101551.09;4994418;28;51943;-48
2021/11/05 01:42:26;;;;;;;;;3.75;1.75;;;;;17.46;45.06;101568.38;4994969;28;51094;-46
2021/11/05 01:44:52;;;;;;;;;2.75;2.50;;;;;17.46;44.90;101573.00;4994586;28;51209;-47
2021/11/05 01:47:20;;;;;;;;;2.75;2.00;;;;;17.45;44.96;101572.16;4995103;28;50957;-48
2021/11/05 01:49:47;;;;;;;;;3.25;2.25;;;;;17.47;45.38;101577.44;4994391;28;51865;-48
2021/11/05 01:52:16;;;;;;;;;4.75;2.75;;;;;17.46;44.98;101573.00;4994629;28;51027;-47
2021/11/05 01:54:42;;;;;;;;;3.00;2.25;;;;;17.46;45.14;101581.22;4994887;28;51004;-46
2021/11/05 01:57:08;;;;;;;;;3.00;3.00;;;;;17.46;45.00;101578.47;4994648;28;51229;-47
2021/11/05 01:59:36;;;;;;;;;3.00;2.00;;;;;17.45;45.16;101583.09;4994091;28;51089;-48
2021/11/05 02:02:04;;;;;;;;;4.75;3.75;;;;;17.45;44.82;101582.25;4994425;28;51020;-43
2021/11/05 02:04:30;;;;;;;;;1.50;1.50;;;;;17.45;45.25;101583.09;4992896;28;51195;-46
2021/11/05 02:06:57;;;;;;;;;2.50;2.00;;;;;17.46;45.06;101586.69;4994877;28;51082;-49
2021/11/05 02:09:24;;;;;;;;;2.75;2.75;;;;;17.46;44.92;101593.03;4993203;28;52062;-44
2021/11/05 02:11:53;;;;;;;;;3.75;2.00;;;;;17.44;45.06;101586.88;4994740;28;51379;-50
2021/11/05 02:14:21;;;;;;;;;4.00;2.00;;;;;17.44;44.92;101589.63;4994297;28;51012;-51
2021/11/05 02:16:49;;;;;;;;;1.75;1.00;;;;;17.45;45.33;101591.31;4994347;28;51140;-43
2021/11/05 02:19:17;;;;;;;;;1.75;1.00;;;;;17.45;45.35;101591.31;4992889;28;52148;-48
2021/11/05 02:21:45;;;;;;;;;1.25;1.25;;;;;17.45;45.34;101590.47;4994573;28;51284;-47
2021/11/05 02:24:12;;;;;;;;;1.50;1.00;;;;;17.45;45.06;101601.44;4994477;28;51067;-45
2021/11/05 02:26:39;;;;;;;;;1.25;1.25;;;;;17.43;45.09;101596.13;5022908;28;51121;-49
2021/11/05 02:29:04;;;;;;;;;2.00;2.00;;;;;17.44;44.94;101605.19;5075410;28;51119;-46
2021/11/05 02:31:31;;;;;;;;;1.50;1.50;;;;;17.44;44.89;101597.84;5077368;27;51438;-45
2021/11/05 02:33:56;;;;;;;;;1.50;1.00;;;;;17.45;45.18;101601.44;5077214;27;50973;-47
2021/11/05 02:36:21;;;;;;;;;1.25;1.25;;;;;17.43;44.83;101604.34;5077616;27;51135;-43
2021/11/05 02:38:47;;;;;;;;;1.00;1.00;;;;;17.44;45.15;101600.56;5076823;27;51074;-45
2021/11/05 02:41:12;;;;;;;;;4.00;1.00;;;;;17.45;44.71;101612.38;5076953;27;51108;-47
2021/11/05 02:43:38;;;;;;;;;1.00;1.00;;;;;17.44;45.16;101619.75;5077078;27;51581;-43
2021/11/05 02:46:03;;;;;;;;;3.75;1.50;;;;;17.44;45.00;101618.91;5077333;27;51042;-48
2021/11/05 02:48:31;;;;;;;;;1.50;1.50;;;;;17.45;44.98;101620.59;5076623;27;51025;-47
2021/11/05 02:50:56;;;;;;;;;3.00;1.50;;;;;17.44;45.01;101618.91;5077099;28;51425;-47
2021/11/05 02:53:22;;;;;;;;;1.00;1.00;;;;;17.42;44.98;101619.09;5076869;27;51296;-44
2021/11/05 02:55:47;;;;;;;;;1.75;1.75;;;;;17.43;45.28;101623.53;5077260;27;51044;-48
2021/11/05 02:58:13;;;;;;;;;0.75;0.25;;;;;17.42;45.18;101616.34;5076574;28;51235;-47
2021/11/05 03:00:41;;;;;;;;;1.25;1.25;;;;;17.43;45.01;101617.19;5076746;27;51074;-43
2021/11/05 03:03:07;;;;;;;;;1.00;1.00;;;;;17.42;45.02;101624.56;5076762;27;51282;-49
2021/11/05 03:05:32;;;;;;;;;2.50;1.00;;;;;17.42;45.04;101630.03;5076912;27;51107;-45
2021/11/05 03:07:57;;;;;;;;;1.00;1.00;;;;;17.42;45.08;101631.94;5076530;27;51703;-47
2021/11/05 03:10:23;;;;;;;;;0.75;0.75;;;;;17.43;45.03;101639.09;5076726;27;50916;-44
2021/11/05 03:12:48;;;;;;;;;0.75;0.75;;;;;17.42;45.08;101635.53;5076450;27;51015;-47
2021/11/05 03:15:14;;;;;;;;;1.00;1.00;;;;;17.42;45.40;101640.16;5076593;27;51222;-49
2021/11/05 03:17:40;;;;;;;;;1.50;1.50;;;;;17.42;44.90;101648.38;5076537;28;50939;-46
2021/11/05 03:20:08;;;;;;;;;3.00;2.00;;;;;17.42;45.10;101648.38;5076179;27;51053;-44
2021/11/05 03:22:34;;;;;;;;;0.75;0.75;;;;;17.42;45.07;101646.47;5076406;27;51319;-49
2021/11/05 03:24:59;;;;;;;;;2.00;1.00;;;;;17.42;45.10;101651.94;5076695;27;51074;-49
2021/11/05 03:27:25;;;;;;;;;1.25;1.25;;;;;17.42;45.17;101653.84;5020918;28;52033;-43
2021/11/05 03:29:50;;;;;;;;;1.75;0.75;;;;;17.41;45.28;101661.22;4993332;28;51223;-42
2021/11/05 03:32:16;;;;;;;;;1.00;0.00;;;;;17.39;45.09;101655.03;4993480;28;51024;-43
2021/11/05 03:34:41;;;;;;;;;0.75;0.75;;;;;17.41;45.05;101665.84;4993381;28;51192;-42
2021/11/05 03:37:07;;;;;;;;;3.50;1.50;;;;;17.41;44.95;101666.69;4993126;28;51019;-42
2021/11/05 03:39:33;;;;;;;;;0.75;0.75;;;;;17.41;44.77;101668.56;4993106;28;51131;-49
2021/11/05 03:41:59;;;;;;;;;1.25;1.25;;;;;17.41;45.16;101674.91;4993415;28;51115;-49
2021/11/05 03:44:24;;;;;;;;;1.50;0.50;;;;;17.41;44.78;101676.78;4993202;28;51210;-45
2021/11/05 03:46:50;;;;;;;;;1.00;0.00;;;;;17.41;44.76;101679.53;4993199;28;51585;-44
2021/11/05 03:49:16;;;;;;;;;0.50;0.50;;;;;17.40;44.92;101678.66;4993139;28;50880;-43
2021/11/05 03:51:41;;;;;;;;;2.50;0.75;;;;;17.41;45.03;101687.75;4991859;28;51027;-43
2021/11/05 03:54:07;;;;;;;;;0.00;0.00;;;;;17.40;44.88;101692.34;4992017;28;51080;-47
2021/11/05 03:56:34;;;;;;;;;2.00;1.00;;;;;17.40;45.51;101686.00;4992976;28;51847;-49
2021/11/05 03:59:00;;;;;;;;;1.25;0.50;;;;;17.41;44.95;101695.97;4992811;28;51049;-45
2021/11/05 04:01:26;;;;;;;;;1.00;1.00;;;;;17.40;45.03;101696.97;4992905;28;51215;-46
2021/11/05 04:03:52;;;;;;;;;1.25;1.00;;;;;17.41;44.95;101701.44;4993084;28;51402;-50
2021/11/05 04:06:19;;;;;;;;;2.00;2.00;;;;;17.39;45.16;101701.59;4992998;28;50989;-45
2021/11/05 04:08:45;;;;;;;;;1.75;0.75;;;;;17.38;45.10;101708.09;4993019;28;51384;-48
2021/11/05 04:11:10;;;;;;;;;3.00;1.50;;;;;17.39;44.87;101709.81;4993054;28;51050;-49
2021/11/05 04:13:36;;;;;;;;;0.75;0.75;;;;;17.39;45.35;101717.19;4992550;28;51173;-46
2021/11/05 04:16:02;;;;;;;;;1.00;1.00;;;;;17.39;45.00;101719.91;4992563;28;51026;-45
2021/11/05 04:18:27;;;;;;;;;2.25;2.00;;;;;17.39;44.95;101726.25;4992560;28;50915;-48
2021/11/05 04:20:53;;;;;;;;;0.75;0.75;;;;;17.39;44.75;101730.88;4992874;28;51138;-46
2021/11/05 04:23:18;;;;;;;;;2.25;1.25;;;;;17.38;45.02;101738.22;4992987;28;51029;-48
2021/11/05 04:25:46;;;;;;;;;0.75;0.75;;;;;17.38;45.21;101746.44;4992751;28;52105;-48
2021/11/05 04:28:13;;;;;;;;;0.50;0.50;;;;;17.39;45.11;101744.56;5074141;28;51449;-45
2021/11/05 04:30:38;;;;;;;;;0.75;0.75;;;;;17.39;45.29;101747.31;5075806;27;51215;-44
2021/11/05 04:33:05;;;;;;;;;0.75;0.75;;;;;17.38;44.87;101745.59;5075878;28;51346;-47
2021/11/05 04:35:31;;;;;;;;;0.75;0.75;;;;;17.38;44.96;101751.94;5079106;27;51838;-42
2021/11/05 04:37:56;;;;;;;;;1.00;1.00;;;;;17.38;44.81;101756.56;5079068;27;51164;-50
2021/11/05 04:40:22;;;;;;;;;1.00;1.00;;;;;17.36;45.30;101754.00;5078937;27;50993;-51
2021/11/05 04:42:48;;;;;;;;;1.00;0.00;;;;;17.37;45.23;101763.06;5079293;27;51434;-43
2021/11/05 04:45:13;;;;;;;;;1.00;0.25;;;;;17.36;45.10;101770.44;5078850;27;51970;-43
2021/11/05 04:47:39;;;;;;;;;1.00;1.00;;;;;17.37;44.91;101779.50;5078960;27;51186;-44
2021/11/05 04:50:07;;;;;;;;;2.25;0.25;;;;;17.37;45.04;101774.03;5078888;27;51191;-46
2021/11/05 04:52:33;;;;;;;;;1.25;0.50;;;;;17.37;45.30;101776.75;5079233;27;51152;-52
2021/11/05 04:54:58;;;;;;;;;0.50;0.50;;;;;17.37;44.98;101785.84;5078600;28;51142;-46
2021/11/05 04:57:24;;;;;;;;;1.00;1.00;;;;;17.37;45.02;101776.75;5079099;27;51037;-51
2021/11/05 04:59:49;;;;;;;;;1.00;1.00;;;;;17.37;44.77;101790.47;5078460;27;51174;-45
2021/11/05 05:02:16;;;;;;;;;3.25;1.00;;;;;17.37;45.12;101787.72;5079217;27;51123;-47
2021/11/05 05:04:42;;;;;;;;;3.25;1.75;;;;;17.36;45.06;101789.59;5078411;27;52705;-45
2021/11/05 05:07:07;;;;;;;;;0.00;0.00;;;;;17.36;45.29;101796.97;5078670;28;50887;-46
2021/11/05 05:09:32;;;;;;;;;0.00;0.00;;;;;17.36;45.05;101794.22;5078791;27;51000;-44
2021/11/05 05:11:58;;;;;;;;;1.00;1.00;;;;;17.36;44.89;101799.72;5078601;27;51146;-48
2021/11/05 05:14:23;;;;;;;;;1.00;1.00;;;;;17.36;44.96;101805.19;5078322;27;52136;-50
2021/11/05 05:16:48;;;;;;;;;1.25;1.25;;;;;17.37;44.97;101804.16;5078303;27;51124;-44
2021/11/05 05:19:14;;;;;;;;;1.75;1.25;;;;;17.36;44.99;101800.56;5078549;27;51163;-43
2021/11/05 05:21:39;;;;;;;;;0.00;0.00;;;;;17.35;45.01;101812.56;5078850;27;51060;-48
2021/11/05 05:24:04;;;;;;;;;1.25;1.25;;;;;17.35;45.22;101807.06;5078073;27;51079;-43
2021/11/05 05:26:30;;;;;;;;;0.25;0.25;;;;;17.35;45.05;101807.06;5054435;28;51043;-42
2021/11/05 05:28:55;;;;;;;;;1.00;0.75;;;;;17.35;45.31;101812.56;4994829;28;51199;-48
2021/11/05 05:31:20;;;;;;;;;1.75;1.00;;;;;17.35;44.89;101814.44;4995197;28;51359;-46
2021/11/05 05:33:46;;;;;;;;;0.25;0.00;;;;;17.34;44.85;101812.75;4994719;28;51897;-47
2021/11/05 05:36:11;;;;;;;;;0.00;0.00;;;;;17.36;45.02;101824.34;4995012;28;51036;-48
2021/11/05 05:38:37;;;;;;;;;1.00;1.00;;;;;17.35;45.15;101817.19;4994774;28;50973;-43
2021/11/05 05:41:03;;;;;;;;;1.00;1.00;;;;;17.36;45.23;101824.34;4994886;28;51390;-48
2021/11/05 05:43:29;;;;;;;;;0.75;0.00;;;;;17.36;45.03;101824.34;4994120;28;51842;-48
2021/11/05 05:45:55;;;;;;;;;0.00;0.00;;;;;17.35;44.82;101830.88;4994750;28;51122;-43
2021/11/05 05:48:21;;;;;;;;;0.75;0.75;;;;;17.35;44.96;101836.34;4994542;28;51054;-44
2021/11/05 05:50:46;;;;;;;;;0.75;0.75;;;;;17.35;44.78;101844.56;4994840;28;51409;-48
2021/11/05 05:53:12;;;;;;;;;0.25;0.00;;;;;17.34;44.80;101837.38;4994447;28;51765;-43
2021/11/05 05:55:39;;;;;;;;;0.00;0.00;;;;;17.35;44.87;101847.31;4994620;28;51123;-45
2021/11/05 05:58:05;;;;;;;;;0.75;0.75;;;;;17.34;44.96;101845.59;4994410;28;51310;-46
2021/11/05 06:00:32;;;;;;;;;1.50;1.50;;;;;17.34;45.39;101849.19;4994688;28;51212;-48
2021/11/05 06:02:57;;;;;;;;;1.00;1.00;;;;;17.34;44.66;101848.34;4994223;28;51815;-45
2021/11/05 06:05:23;;;;;;;;;0.00;0.00;;;;;17.34;45.03;101860.16;4994679;28;51100;-46
2021/11/05 06:07:48;;;;;;;;;0.00;0.00;;;;;17.34;45.00;101853.81;4994591;28;51078;-47
2021/11/05 06:10:14;;;;;;;;;0.50;0.50;;;;;17.34;44.81;101859.28;4994763;28;51092;-46
2021/11/05 06:12:39;;;;;;;;;1.00;1.00;;;;;17.35;44.88;101866.47;4994107;28;51903;-48
2021/11/05 06:15:05;;;;;;;;;0.00;0.00;;;;;17.34;45.09;101873.00;4994236;28;51135;-45
2021/11/05 06:17:31;;;;;;;;;0.25;0.25;;;;;17.34;44.84;101871.09;4994389;28;51068;-46
2021/11/05 06:19:56;;;;;;;;;0.50;0.50;;;;;17.35;45.13;101871.94;4994323;28;51224;-49
2021/11/05 06:22:22;;;;;;;;;0.50;0.00;;;;;17.35;44.92;101875.53;4994211;28;51956;-46
2021/11/05 06:24:47;;;;;;;;;0.75;0.75;;;;;17.34;44.72;101873.84;4994035;28;51032;-49
2021/11/05 06:27:13;;;;;;;;;1.00;1.00;;;;;17.34;45.12;101882.06;5042750;28;51394;-46
2021/11/05 06:29:39;;;;;;;;;0.75;0.75;;;;;17.33;44.68;101882.25;5077029;27;51105;-46
2021/11/05 06:32:05;;;;;;;;;1.00;1.00;;;;;17.34;44.66;101900.38;5077103;27;51915;-46
2021/11/05 06:34:30;;;;;;;;;0.75;0.75;;;;;17.33;44.74;101902.25;5077126;28;51145;-44
2021/11/05 06:36:56;;;;;;;;;1.50;1.00;;;;;17.33;44.84;101904.16;5077194;27;51175;-45
2021/11/05 06:39:21;;;;;;;;;0.75;0.00;;;;;17.33;45.00;101899.53;5077153;27;51009;-43
2021/11/05 06:41:47;;;;;;;;;0.25;0.25;;;;;17.32;44.85;101908.78;5076671;27;51890;-44
2021/11/05 06:44:12;;;;;;;;;0.25;0.00;;;;;17.33;44.71;101909.63;5076705;27;51053;-45
2021/11/05 06:46:38;;;;;;;;;0.75;0.75;;;;;17.33;45.24;101906.88;5077131;27;51511;-47
2021/11/05 06:49:04;;;;;;;;;1.00;0.25;;;;;17.33;44.97;101923.31;5076909;27;51308;-44
2021/11/05 06:51:29;;;;;;;;;0.00;0.00;;;;;17.33;44.64;101920.59;5076943;27;50934;-47
2021/11/05 06:53:54;;;;;;;;;0.00;0.00;;;;;17.33;44.90;101928.78;5076631;27;51048;-47
2021/11/05 06:56:20;;;;;;;;;0.50;0.00;;;;;17.31;44.73;101932.56;5076208;27;50915;-42
2021/11/05 06:58:46;;;;;;;;;0.75;0.75;;;;;17.33;44.89;101939.75;5076386;27;51010;-46
2021/11/05 07:01:12;;;;;;;;;0.25;0.25;;;;;17.31;44.85;101937.19;5076495;27;51871;-48
2021/11/05 07:03:38;;;;;;;;;1.25;0.00;;;;;17.32;44.69;101944.38;5076472;27;51086;-47
2021/11/05 07:06:03;;;;;;;;;0.00;0.00;;;;;17.31;44.69;101953.63;5076296;27;51088;-45
2021/11/05 07:08:29;;;;;;;;;0.00;0.00;;;;;17.30;44.78;101950.03;5076967;27;51111;-47
2021/11/05 07:10:55;;;;;;;;;1.25;0.25;;;;;17.31;44.88;101951.75;5076173;27;51845;-42
2021/11/05 07:13:20;;;;;;;;;0.00;0.00;;;;;17.30;44.66;101958.25;5076201;27;50987;-44
2021/11/05 07:15:47;;;;;;;;;0.50;0.50;;;;;17.31;44.92;101959.97;5076480;27;51038;-46
2021/11/05 07:18:12;;;;;;;;;1.00;1.00;;;;;17.31;44.88;101976.38;5076405;27;51048;-44
2021/11/05 07:20:38;;;;;;;;;0.25;0.25;;;;;17.31;44.96;101972.78;5076217;27;51003;-46
2021/11/05 07:23:04;;;;;;;;;0.00;0.00;;;;;17.31;44.89;101986.50;5076436;28;50964;-47
2021/11/05 07:25:31;;;;;;;;;1.50;1.00;;;;;17.31;44.97;101984.59;5076455;28;51085;-47
2021/11/05 07:27:57;;;;;;;;;0.00;0.00;;;;;17.31;44.77;101979.13;5002864;27;50919;-42
2021/11/05 07:30:23;;;;;;;;;1.00;1.00;;;;;17.31;44.92;101987.34;4993227;28;51089;-43
2021/11/05 07:32:50;;;;;;;;;2.00;0.25;;;;;17.33;44.55;102000.00;4993245;28;51195;-48
2021/11/05 07:35:17;;;;;;;;;0.25;0.25;;;;;17.33;44.68;102010.97;4993119;28;51086;-42
2021/11/05 07:37:43;;;;;;;;;1.00;1.00;;;;;17.32;44.90;102010.09;4993342;28;51070;-44
2021/11/05 07:40:09;;;;;;;;;1.50;0.25;;;;;17.33;44.60;102013.69;4992462;28;50961;-46
2021/11/05 07:42:36;;;;;;;;;1.00;1.00;;;;;17.32;44.59;102010.09;4993242;28;51073;-45
2021/11/05 07:45:04;;;;;;;;;0.75;0.75;;;;;17.31;45.07;102027.56;4992851;28;51109;-44
2021/11/05 07:47:29;;;;;;;;;1.25;0.75;;;;;17.31;44.91;102020.22;4991745;28;51115;-47
2021/11/05 07:49:54;;;;;;;;;1.00;1.00;;;;;17.31;44.94;102031.16;4992405;28;51910;-49
2021/11/05 07:52:20;;;;;;;;;0.00;0.00;;;;;17.32;44.85;102029.28;4992775;28;51000;-46
2021/11/05 07:54:46;;;;;;;;;0.25;0.25;;;;;17.32;44.94;102026.53;4992990;28;51027;-45
2021/11/05 07:57:13;;;;;;;;;0.25;0.25;;;;;17.33;44.71;102035.59;4992977;28;51016;-48
2021/11/05 07:59:38;;;;;;;;;0.50;0.50;;;;;17.31;44.76;102042.13;4992329;28;51957;-51
2021/11/05 08:02:04;;;;;;;;;0.00;0.00;;;;;17.31;44.75;102047.59;4992633;28;51063;-45
2021/11/05 08:04:29;;;;;;;;;1.25;1.00;;;;;17.32;44.77;102053.94;4992693;28;51098;-49
2021/11/05 08:06:55;;;;;;;;;1.00;1.00;;;;;17.31;44.67;102055.81;4992851;28;50962;-49
2021/11/05 08:09:20;;;;;;;;;1.00;1.00;;;;;17.33;45.08;102060.25;4995102;28;51012;-43
2021/11/05 08:11:45;;;;;;;;;0.00;0.00;;;;;17.33;44.85;102063.00;4995657;28;51051;-49
2021/11/05 08:14:11;;;;;;;;;2.50;2.00;;;;;17.33;44.91;102068.47;4995103;28;51430;-48
2021/11/05 08:16:36;;;;;;;;;1.50;1.25;;;;;17.33;44.68;102080.28;4995764;28;51028;-50
2021/11/05 08:19:02;;;;;;;;;1.75;1.00;;;;;17.34;44.81;102073.78;4993764;28;52808;-49
2021/11/05 08:21:27;;;;;;;;;0.75;0.75;;;;;17.31;44.81;102077.72;4995319;28;51158;-47
2021/11/05 08:23:53;;;;;;;;;0.00;0.00;;;;;17.33;44.67;102087.66;4995968;28;51240;-43
2021/11/05 08:26:19;;;;;;;;;3.00;1.25;;;;;17.33;44.98;102087.66;5012622;28;51357;-47
2021/11/05 08:28:44;;;;;;;;;3.00;2.00;;;;;17.33;44.82;102088.50;5078300;27;51895;-45
2021/11/05 08:31:13;;;;;;;;;1.75;1.00;;;;;17.34;44.52;102083.88;5079196;27;51139;-44
2021/11/05 08:33:41;;;;;;;;;3.50;2.00;;;;;17.34;44.55;102092.09;5078845;27;51155;-46
2021/11/05 08:36:07;;;;;;;;;0.75;0.75;;;;;17.34;44.57;102097.56;5079171;27;50907;-45
2021/11/05 08:38:33;;;;;;;;;2.50;1.50;;;;;17.34;44.80;102100.31;5078633;28;52217;-42
2021/11/05 08:40:59;;;;;;;;;1.00;0.25;;;;;17.34;45.05;102106.63;5078365;27;51135;-49
2021/11/05 08:43:30;;;;;;;;;2.75;1.75;;;;;17.33;44.48;102104.94;5078170;27;50992;-44
2021/11/05 08:46:00;;;;;;;;;0.50;0.50;;;;;17.34;44.84;102106.63;5077159;28;51121;-46
2021/11/05 08:48:28;;;;;;;;;1.75;1.50;;;;;17.34;44.72;102100.31;5077934;27;51833;-47
2021/11/05 08:50:53;;;;;;;;;1.25;1.00;;;;;17.34;45.03;102109.38;5078573;27;51389;-45
2021/11/05 08:53:20;;;;;;;;;0.75;0.75;;;;;17.34;44.74;102114.00;5078661;27;51151;-48
2021/11/05 08:55:47;;;;;;;;;1.00;1.00;;;;;17.33;44.93;102126.84;5078393;27;51008;-51
2021/11/05 08:58:12;;;;;;;;;2.00;1.00;;;;;17.35;44.79;102126.66;5077705;27;51752;-48
2021/11/05 09:00:38;;;;;;;;;0.50;0.50;;;;;17.34;44.53;102134.03;5078110;27;51084;-47
2021/11/05 09:03:05;;;;;;;;;2.00;1.25;;;;;17.34;44.81;102130.44;5078355;27;51223;-46
2021/11/05 09:05:33;;;;;;;;;1.00;1.00;;;;;17.35;44.62;102130.25;5078447;27;51096;-45
2021/11/05 09:07:58;;;;;;;;;1.25;0.75;;;;;17.35;44.58;102140.38;5077753;27;52828;-46
2021/11/05 09:10:24;;;;;;;;;1.75;1.75;;;;;17.34;44.42;102136.78;5078354;27;51066;-49
2021/11/05 09:12:50;;;;;;;;;2.25;2.25;;;;;17.35;44.61;102140.38;5076829;27;51049;-49
2021/11/05 09:15:22;;;;;;;;;1.25;1.25;;;;;17.35;44.76;102152.19;5078879;27;50876;-47
2021/11/05 09:17:49;;;;;;;;;2.00;2.00;;;;;17.35;44.49;102145.84;5077759;27;51180;-50
2021/11/05 09:20:15;;;;;;;;;1.25;1.25;;;;;17.36;44.72;102161.25;5077788;27;51418;-47
2021/11/05 09:22:41;;;;;;;;;0.50;0.50;;;;;17.35;44.80;102162.28;5078152;27;51187;-44
2021/11/05 09:25:07;;;;;;;;;1.00;1.00;;;;;17.35;44.61;102159.53;5078635;27;51129;-47
2021/11/05 09:27:33;;;;;;;;;2.75;1.50;;;;;17.35;44.66;102167.75;5018442;27;51282;-47
2021/11/05 09:29:58;;;;;;;;;2.00;1.00;;;;;17.35;44.76;102165.00;4994623;28;51609;-50
2021/11/05 09:32:24;;;;;;;;;2.00;1.75;;;;;17.35;44.79;102170.50;4993532;28;51103;-45
2021/11/05 09:34:51;;;;;;;;;2.00;1.00;;;;;17.36;44.89;102172.19;4993325;28;51306;-47
2021/11/05 09:37:17;;;;;;;;;1.75;1.75;;;;;17.35;44.83;102167.75;4994836;28;51904;-49
2021/11/05 09:39:43;;;;;;;;;0.75;0.75;;;;;17.34;44.92;102166.03;4993138;28;51182;-47
2021/11/05 09:42:09;;;;;;;;;1.75;1.75;;;;;17.36;44.63;102180.41;4994987;28;51095;-47
2021/11/05 09:44:35;;;;;;;;;2.75;0.75;;;;;17.38;44.71;102181.09;4994850;27;51179;-45
2021/11/05 09:47:04;;;;;;;;;1.50;1.50;;;;;17.39;44.68;102191.03;4994404;28;51039;-50
2021/11/05 09:49:30;;;;;;;;;1.75;1.75;;;;;17.39;44.52;102180.06;4994436;28;50996;-48
2021/11/05 09:51:59;;;;;;;;;0.50;0.50;;;;;17.42;44.85;102179.75;4994404;28;51141;-47
2021/11/05 09:54:26;;;;;;;;;1.00;1.00;;;;;17.42;44.83;102185.22;4994258;28;51009;-48
2021/11/05 09:56:52;;;;;;;;;1.50;1.50;;;;;17.42;44.73;102183.34;4994182;28;51047;-50
2021/11/05 09:59:18;;;;;;;;;3.00;3.00;;;;;17.44;44.67;102197.72;4994012;28;51052;-46
2021/11/05 10:01:43;;;;;;;;;1.00;1.00;;;;;17.44;44.63;102195.00;4994455;28;51114;-47
2021/11/05 10:04:09;;;;;;;;;3.25;3.00;;;;;17.44;44.81;102203.22;4994431;28;51083;-46
2021/11/05 10:06:35;;;;;;;;;1.75;1.50;;;;;17.45;44.64;102207.66;4993761;28;51875;-46
2021/11/05 10:09:02;;;;;;;;;1.00;1.00;;;;;17.45;44.47;102209.53;4994371;28;51453;-50
2021/11/05 10:11:32;;;;;;;;;2.00;2.00;;;;;17.47;44.69;102215.69;4992984;28;51048;-46
2021/11/05 10:13:59;;;;;;;;;3.50;1.75;;;;;17.46;44.74;102222.22;4993988;28;51126;-47
2021/11/05 10:16:26;;;;;;;;;2.25;1.75;;;;;17.47;44.45;102223.91;4992653;28;52756;-49
2021/11/05 10:18:55;;;;;;;;;1.25;1.25;;;;;17.46;44.63;102220.31;4993814;28;51131;-43
2021/11/05 10:21:20;;;;;;;;;2.50;0.50;;;;;17.48;44.61;102220.16;4993861;28;51175;-46
2021/11/05 10:23:46;;;;;;;;;3.00;3.00;;;;;17.47;44.65;102224.78;4993998;28;51004;-50
2021/11/05 10:26:26;;;;;;;;;1.00;1.00;;;;;17.47;44.48;102221.19;5006833;28;51811;-44
2021/11/05 10:28:51;;;;;;;;;2.75;2.00;;;;;17.46;44.55;102228.53;5076442;27;51013;-45
2021/11/05 10:31:18;;;;;;;;;1.25;0.75;;;;;17.47;44.80;102223.91;5075914;27;51439;-43
2021/11/05 10:33:46;;;;;;;;;2.75;2.00;;;;;17.48;44.68;102228.38;5058878;28;51263;-43
2021/11/05 10:36:14;;;;;;;;;3.50;2.00;;;;;17.48;44.56;102231.09;5076600;27;50929;-47
2021/11/05 10:38:44;;;;;;;;;1.50;1.50;;;;;17.47;44.55;102233.00;5075353;27;51452;-50
2021/11/05 10:41:12;;;;;;;;;2.75;2.00;;;;;17.48;44.48;102242.06;5076836;27;51103;-48
2021/11/05 10:43:53;;;;;;;;;4.00;3.00;;;;;17.48;44.33;102236.59;5076956;27;51613;-46
2021/11/05 10:46:39;;;;;;;;;1.00;0.75;;;;;17.48;44.72;102240.19;5075166;28;52308;-48
2021/11/05 10:49:19;;;;;;;;;2.25;1.75;;;;;17.49;44.54;102241.03;5076418;27;51070;-46
2021/11/05 10:51:44;;;;;;;;;5.00;1.50;;;;;17.49;44.61;102246.53;5076292;27;51084;-47
2021/11/05 10:54:09;;;;;;;;;2.25;2.00;;;;;17.49;44.56;102246.53;5076652;27;51188;-47
2021/11/05 10:56:35;;;;;;;;;1.50;1.50;;;;;17.49;44.36;102246.53;5076211;27;52155;-45
2021/11/05 10:59:06;;;;;;;;;1.75;1.00;;;;;17.49;44.76;102249.25;5076001;27;51124;-48
2021/11/05 11:01:35;;;;;;;;;3.00;2.25;;;;;17.50;44.63;102248.22;5075937;27;51145;-47
2021/11/05 11:04:03;;;;;;;;;1.75;1.75;;;;;17.48;44.41;102239.31;5076200;27;51159;-49
2021/11/05 11:06:32;;;;;;;;;2.75;2.00;;;;;17.50;44.48;102242.75;5075447;28;51914;-46
2021/11/05 11:09:03;;;;;;;;;2.00;1.50;;;;;17.50;44.17;102243.59;5075905;27;51183;-48
2021/11/05 11:11:30;;;;;;;;;2.00;1.00;;;;;17.51;44.51;102241.75;5075879;27;51433;-47
2021/11/05 11:14:20;;;;;;;;;2.00;1.00;;;;;17.51;44.33;102245.34;5075782;27;50969;-48
2021/11/05 11:16:58;;;;;;;;;1.75;1.75;;;;;17.51;44.32;102245.34;5072670;27;52095;-47
2021/11/05 11:19:30;;;;;;;;;3.00;0.75;;;;;17.51;44.39;102241.75;5075709;27;51103;-43